Wilton, New Hampshire
Current Conditions -  °F | °C
As of 4:51 PM on Saturday 25 Oct 2014 (Local Time) from KASH Reporting Station
Clear Clear  
Wind Chill: 64°   Ceiling: Unl
Heat Index: 64°   Visibility: 10mi
Dew Point: 41°   Wind: 5mph
Humidity: 43%   Direction: 280°W
Pressure: 29.58"   Gusts: NA
Location:  42.85°N, 71.74°W
Report Text: KASH 252051Z 28004KT 10SM CLR 18/05 A2958 RMK AO2 56018 T01770050 SLP264 $
Loading
Personal Weather Stations






























Interactive Weather Map New forecast layout! Learn more

10-Day Weather Forecast

Advertisements
Track Severe Weather on mobile